createdAt,value
2023-03-26T00:01:45.329Z,99801.63
2023-03-26T00:06:48.452Z,99804.25
2023-03-26T00:11:50.172Z,99814.00
2023-03-26T00:16:51.848Z,99812.13
2023-03-26T00:21:54.848Z,99815.97
2023-03-26T00:26:56.460Z,99803.81
2023-03-26T00:31:58.108Z,99809.69
2023-03-26T00:37:01.249Z,99808.28
2023-03-26T00:42:03.158Z,99802.16
2023-03-26T00:47:04.875Z,99805.50
2023-03-26T00:52:07.873Z,99795.38
2023-03-26T00:57:09.592Z,99796.06
2023-03-26T01:02:13.513Z,99787.66
2023-03-26T01:07:18.613Z,99788.94
2023-03-26T01:12:22.766Z,99780.84
2023-03-26T01:17:24.568Z,99776.06
2023-03-26T01:22:27.777Z,99767.97
2023-03-26T01:27:38.231Z,99764.38
2023-03-26T01:32:50.261Z,99753.41
2023-03-26T01:38:06.587Z,99746.59
2023-03-26T01:43:17.935Z,99749.34
2023-03-26T01:48:19.870Z,99744.06
2023-03-26T01:53:21.816Z,99728.59
2023-03-26T01:58:34.057Z,99725.44
2023-03-26T02:03:43.610Z,99716.50
2023-03-26T02:08:51.663Z,99702.50
2023-03-26T02:13:54.806Z,99682.81
2023-03-26T02:18:56.522Z,99686.97
2023-03-26T02:23:58.224Z,99686.97
2023-03-26T02:29:01.871Z,99677.09
2023-03-26T02:34:03.682Z,99672.72
2023-03-26T02:39:05.408Z,99662.75
2023-03-26T02:44:08.502Z,99658.41
2023-03-26T02:49:10.133Z,99660.47
2023-03-26T02:54:11.800Z,99649.72
2023-03-26T02:59:14.838Z,99641.44
2023-03-26T03:04:16.490Z,99632.16
2023-03-26T03:09:18.171Z,99626.25
2023-03-26T03:14:21.192Z,99613.50
2023-03-26T03:19:22.810Z,99606.31
2023-03-26T03:24:24.441Z,99593.66
2023-03-26T03:29:27.556Z,99590.78
2023-03-26T03:34:29.234Z,99589.75
2023-03-26T03:39:30.867Z,99578.06
2023-03-26T03:44:33.926Z,99574.50
2023-03-26T03:49:35.583Z,99562.72
2023-03-26T03:54:37.238Z,99555.19
2023-03-26T03:59:47.638Z,99548.34
2023-03-26T04:04:49.872Z,99539.13
2023-03-26T04:09:51.537Z,99519.19
2023-03-26T04:14:54.807Z,99513.81
2023-03-26T04:19:56.444Z,99501.00
2023-03-26T04:24:58.126Z,99493.66
2023-03-26T04:30:01.719Z,99486.00
2023-03-26T04:35:03.880Z,99479.28
2023-03-26T04:40:09.116Z,99473.44
2023-03-26T04:45:13.115Z,99453.78
2023-03-26T04:50:14.817Z,99422.47
2023-03-26T04:55:23.491Z,99424.13
2023-03-26T05:00:26.824Z,99413.34
2023-03-26T05:05:29.380Z,99406.72
2023-03-26T05:10:31.085Z,99391.75
2023-03-26T05:15:34.109Z,99384.09
2023-03-26T05:20:35.744Z,99386.47
2023-03-26T05:25:37.391Z,99372.06
2023-03-26T05:30:40.431Z,99354.31
2023-03-26T05:35:42.176Z,99347.97
2023-03-26T05:40:43.849Z,99341.84
2023-03-26T05:45:48.824Z,99349.88
2023-03-26T05:50:51.532Z,99347.44
2023-03-26T05:55:53.772Z,99344.09
2023-03-26T06:01:01.435Z,99336.09
2023-03-26T06:06:06.337Z,99329.97
2023-03-26T06:11:08.236Z,99324.41
2023-03-26T06:16:27.362Z,99318.59
2023-03-26T06:21:29.899Z,99315.41
2023-03-26T06:26:31.503Z,99308.03
2023-03-26T06:31:34.989Z,99307.22
2023-03-26T06:36:36.694Z,99300.41
2023-03-26T06:41:38.429Z,99290.47
2023-03-26T06:46:41.520Z,99290.56
2023-03-26T06:51:43.208Z,99277.06
2023-03-26T06:56:44.871Z,99269.03
2023-03-26T07:01:47.936Z,99255.56
2023-03-26T07:06:49.545Z,99242.94
2023-03-26T07:11:51.141Z,99241.41
2023-03-26T07:16:54.173Z,99236.72
2023-03-26T07:21:56.340Z,99237.41
2023-03-26T07:27:06.989Z,99221.75
2023-03-26T07:32:19.129Z,99231.84
2023-03-26T07:37:44.128Z,99215.81
2023-03-26T07:42:57.038Z,99204.97
2023-03-26T07:48:00.699Z,99192.94
2023-03-26T07:53:02.788Z,99189.13
2023-03-26T07:58:16.249Z,99179.84
2023-03-26T08:03:51.218Z,99178.69
2023-03-26T08:08:59.766Z,99172.44
2023-03-26T08:14:17.832Z,99166.22
2023-03-26T08:19:41.629Z,99165.22
2023-03-26T08:24:55.884Z,99153.19
2023-03-26T08:30:03.640Z,99145.09
2023-03-26T08:35:07.604Z,99142.81
2023-03-26T08:40:09.816Z,99144.84
2023-03-26T08:45:38.910Z,99146.72
2023-03-26T08:51:07.056Z,99134.47
2023-03-26T08:56:17.170Z,99136.94
2023-03-26T09:01:52.226Z,99120.31
2023-03-26T09:07:15.223Z,99115.94
2023-03-26T09:12:37.913Z,99108.13
2023-03-26T09:18:14.834Z,99102.97
2023-03-26T09:23:45.039Z,99093.16
2023-03-26T09:35:13.448Z,99080.41
2023-03-26T09:40:19.068Z,99080.03
2023-03-26T09:45:49.591Z,99071.13
2023-03-26T09:51:13.288Z,99056.03
2023-03-26T09:56:29.527Z,99046.84
2023-03-26T10:01:40.194Z,99033.03
2023-03-26T10:06:54.182Z,99060.25
2023-03-26T10:12:10.718Z,99049.88
2023-03-26T10:17:31.726Z,99074.22
2023-03-26T10:22:47.146Z,99082.06
2023-03-26T10:28:01.214Z,99064.22
2023-03-26T10:33:13.231Z,99059.66
2023-03-26T10:38:23.465Z,99045.84
2023-03-26T10:44:08.467Z,99036.69
2023-03-26T10:49:35.556Z,99014.19
2023-03-26T10:54:48.404Z,99007.44
2023-03-26T10:59:51.989Z,98996.41
2023-03-26T11:05:16.068Z,99007.09
2023-03-26T11:10:29.744Z,98997.88
2023-03-26T11:15:37.744Z,98983.63
2023-03-26T11:20:43.905Z,98984.22
2023-03-26T11:26:00.572Z,98982.41
2023-03-26T11:31:14.343Z,98980.75
2023-03-26T11:36:19.650Z,98979.19
2023-03-26T11:41:24.114Z,98978.84
2023-03-26T11:46:27.574Z,98974.69
2023-03-26T11:51:32.029Z,98974.63
2023-03-26T11:57:04.504Z,98970.22
2023-03-26T12:02:23.252Z,98977.50
2023-03-26T12:07:30.941Z,98971.19
2023-03-26T12:12:36.635Z,98965.53
2023-03-26T12:17:40.549Z,98966.47
2023-03-26T12:22:43.564Z,98959.72
2023-03-26T12:27:48.644Z,98948.16
2023-03-26T12:32:56.561Z,98933.09
2023-03-26T12:38:14.831Z,98942.53
2023-03-26T12:44:56.639Z,98941.56
2023-03-26T12:48:53.274Z,98936.09
2023-03-26T12:54:06.392Z,98933.38
2023-03-26T12:59:29.461Z,98914.41
2023-03-26T13:05:05.783Z,98915.50
2023-03-26T13:10:37.884Z,98897.53
2023-03-26T13:15:47.054Z,98912.97
2023-03-26T13:20:57.776Z,98903.81
2023-03-26T13:26:11.376Z,98893.69
2023-03-26T13:31:20.987Z,98895.91
2023-03-26T13:36:33.468Z,98914.91
2023-03-26T13:41:51.750Z,98901.09
2023-03-26T13:46:59.350Z,98889.13
2023-03-26T13:52:06.036Z,98875.91
2023-03-26T13:57:12.342Z,98875.06
2023-03-26T14:02:23.102Z,98877.09
2023-03-26T14:07:30.747Z,98861.34
2023-03-26T14:12:43.305Z,98867.94
2023-03-26T14:17:49.755Z,98861.81
2023-03-26T14:23:03.681Z,98868.50
2023-03-26T14:28:24.127Z,98870.44
2023-03-26T14:33:58.518Z,98897.97
2023-03-26T14:39:37.361Z,98966.66
2023-03-26T14:44:56.389Z,99000.16
2023-03-26T14:50:27.231Z,98985.31
2023-03-26T14:55:49.225Z,98977.84
2023-03-26T15:01:26.716Z,98977.75
2023-03-26T15:07:28.575Z,98999.94
2023-03-26T15:12:43.044Z,98979.72
2023-03-26T15:18:29.177Z,98994.53
2023-03-26T15:24:22.486Z,98993.25
2023-03-26T15:29:52.888Z,98989.00
2023-03-26T15:35:22.261Z,98982.13
2023-03-26T15:40:43.338Z,98986.13
2023-03-26T15:45:51.016Z,98991.91
2023-03-26T15:50:56.511Z,98985.50
2023-03-26T15:56:05.231Z,98989.63
2023-03-26T16:01:17.772Z,98997.22
2023-03-26T16:06:29.662Z,98988.97
2023-03-26T16:11:47.643Z,98985.84
2023-03-26T16:16:57.261Z,98980.22
2023-03-26T16:22:01.821Z,98988.63
2023-03-26T16:27:27.734Z,98983.50
2023-03-26T16:32:33.981Z,98984.03
2023-03-26T16:37:39.367Z,99000.03
2023-03-26T16:42:47.673Z,99005.63
2023-03-26T16:48:00.921Z,99020.25
2023-03-26T16:53:17.185Z,99028.38
2023-03-26T16:58:30.125Z,99051.19
2023-03-26T17:03:49.756Z,99054.88
2023-03-26T17:09:01.318Z,99057.44
2023-03-26T17:14:17.555Z,99066.34
2023-03-26T17:19:32.513Z,99078.19
2023-03-26T17:24:42.760Z,99078.03
2023-03-26T17:30:02.015Z,99091.13
2023-03-26T17:35:08.785Z,99089.16
2023-03-26T17:40:45.251Z,99092.75
2023-03-26T17:45:47.099Z,99096.41
2023-03-26T17:51:22.446Z,99099.66
2023-03-26T17:56:29.675Z,99109.00
2023-03-26T18:01:36.491Z,99112.56
2023-03-26T18:07:01.856Z,99120.91
2023-03-26T18:12:36.948Z,99127.47
2023-03-26T18:17:45.285Z,99125.72
2023-03-26T18:22:49.259Z,99132.28
2023-03-26T18:27:51.417Z,99131.53
2023-03-26T18:33:00.416Z,99149.81
2023-03-26T18:38:04.033Z,99156.63
2023-03-26T18:43:05.817Z,99160.22
2023-03-26T18:48:13.056Z,99162.25
2023-03-26T18:53:19.553Z,99170.59
2023-03-26T18:58:24.188Z,99184.22
2023-03-26T19:03:27.043Z,99180.09
2023-03-26T19:08:31.236Z,99190.69
2023-03-26T19:13:34.810Z,99201.22
2023-03-26T19:18:40.673Z,99211.16
2023-03-26T19:23:47.674Z,99218.38
2023-03-26T19:28:51.775Z,99238.91
2023-03-26T19:33:59.566Z,99244.75
2023-03-26T19:39:12.104Z,99254.03
2023-03-26T19:44:20.728Z,99264.09
2023-03-26T19:49:28.432Z,99274.50
2023-03-26T19:54:31.669Z,99271.41
2023-03-26T19:59:33.311Z,99295.47
2023-03-26T20:04:34.937Z,99295.41
2023-03-26T20:09:37.985Z,99309.97
2023-03-26T20:14:44.311Z,99320.38
2023-03-26T20:19:46.567Z,99325.13
2023-03-26T20:24:49.813Z,99334.41
2023-03-26T20:29:51.443Z,99346.56
2023-03-26T20:35:36.252Z,99355.03
2023-03-26T20:41:26.844Z,99370.13
2023-03-26T20:52:06.118Z,99393.94
2023-03-26T20:57:10.322Z,99407.38
2023-03-26T21:02:12.103Z,99413.59
2023-03-26T21:07:18.198Z,99422.06
2023-03-26T21:12:29.641Z,99421.94
2023-03-26T21:17:31.898Z,99437.16
2023-03-26T21:22:39.961Z,99460.03
2023-03-26T21:27:54.693Z,99469.44
2023-03-26T21:32:56.344Z,99479.56
2023-03-26T21:37:58.629Z,99490.91
2023-03-26T21:43:02.531Z,99496.56
2023-03-26T21:48:05.086Z,99505.84
2023-03-26T21:53:07.249Z,99520.78
2023-03-26T21:58:21.904Z,99530.13
2023-03-26T22:03:27.901Z,99540.03
2023-03-26T22:08:33.002Z,99558.22
2023-03-26T22:13:36.915Z,99569.38
2023-03-26T22:18:38.607Z,99585.72
2023-03-26T22:23:40.269Z,99609.72
2023-03-26T22:28:43.273Z,99608.19
2023-03-26T22:33:44.987Z,99633.63
2023-03-26T22:38:46.787Z,99640.47
2023-03-26T22:43:49.931Z,99659.28
2023-03-26T22:48:51.734Z,99672.38
2023-03-26T22:53:53.385Z,99681.59
2023-03-26T22:58:56.652Z,99700.97
2023-03-26T23:03:58.387Z,99709.38
2023-03-26T23:09:00.267Z,99717.25
2023-03-26T23:14:03.248Z,99722.59
2023-03-26T23:19:04.923Z,99741.97
2023-03-26T23:24:06.732Z,99745.94
2023-03-26T23:29:10.063Z,99766.34
2023-03-26T23:34:11.729Z,99769.63
2023-03-26T23:39:13.429Z,99783.47
2023-03-26T23:44:16.511Z,99799.69
2023-03-26T23:49:18.569Z,99808.56
2023-03-26T23:54:20.191Z,99823.41
2023-03-26T23:59:23.300Z,99832.91
